createdAt,value
2023-02-12T00:00:07.036Z,100.00
2023-02-12T00:02:41.975Z,100.00
2023-02-12T00:05:08.744Z,100.00
2023-02-12T00:07:35.332Z,100.00
2023-02-12T00:10:02.048Z,100.00
2023-02-12T00:12:28.687Z,100.00
2023-02-12T00:15:08.330Z,100.00
2023-02-12T00:17:35.241Z,100.00
2023-02-12T00:20:01.949Z,100.00
2023-02-12T00:22:29.573Z,100.00
2023-02-12T00:24:56.881Z,100.00
2023-02-12T00:27:24.115Z,100.00
2023-02-12T00:29:50.879Z,100.00
2023-02-12T00:32:20.658Z,100.00
2023-02-12T00:34:47.607Z,100.00
2023-02-12T00:37:15.972Z,100.00
2023-02-12T00:39:42.857Z,100.00
2023-02-12T00:42:11.008Z,100.00
2023-02-12T00:44:37.577Z,100.00
2023-02-12T00:47:05.458Z,100.00
2023-02-12T00:49:35.462Z,100.00
2023-02-12T00:52:03.567Z,100.00
2023-02-12T00:54:31.764Z,100.00
2023-02-12T00:56:59.024Z,100.00
2023-02-12T00:59:29.798Z,100.00
2023-02-12T01:01:56.929Z,100.00
2023-02-12T01:04:24.425Z,100.00
2023-02-12T01:06:51.200Z,100.00
2023-02-12T01:09:19.033Z,100.00
2023-02-12T01:11:47.876Z,100.00
2023-02-12T01:14:14.474Z,100.00
2023-02-12T01:16:41.297Z,100.00
2023-02-12T01:19:07.989Z,100.00
2023-02-12T01:21:35.271Z,100.00
2023-02-12T01:24:02.695Z,100.00
2023-02-12T01:26:31.105Z,100.00
2023-02-12T01:29:01.477Z,100.00
2023-02-12T01:31:31.643Z,100.00
2023-02-12T01:33:59.831Z,100.00
2023-02-12T01:36:28.997Z,100.00
2023-02-12T01:38:57.850Z,100.00
2023-02-12T01:41:32.489Z,100.00
2023-02-12T01:44:13.735Z,100.00
2023-02-12T01:46:40.654Z,100.00
2023-02-12T01:49:14.339Z,100.00
2023-02-12T01:51:43.114Z,100.00
2023-02-12T01:54:13.375Z,100.00
2023-02-12T01:56:42.108Z,100.00
2023-02-12T01:59:09.067Z,100.00
2023-02-12T02:01:35.932Z,100.00
2023-02-12T02:04:07.249Z,100.00
2023-02-12T02:06:39.711Z,100.00
2023-02-12T02:09:06.531Z,100.00
2023-02-12T02:11:51.651Z,100.00
2023-02-12T02:14:34.057Z,100.00
2023-02-12T02:17:24.466Z,100.00
2023-02-12T02:20:00.004Z,100.00
2023-02-12T02:22:36.099Z,100.00
2023-02-12T02:25:23.950Z,100.00
2023-02-12T02:27:50.519Z,100.00
2023-02-12T02:30:26.129Z,100.00
2023-02-12T02:33:07.833Z,100.00
2023-02-12T02:35:43.412Z,100.00
2023-02-12T02:38:45.491Z,100.00
2023-02-12T02:41:28.572Z,100.00
2023-02-12T02:43:56.063Z,100.00
2023-02-12T02:46:25.488Z,100.00
2023-02-12T02:49:02.061Z,100.00
2023-02-12T02:51:41.176Z,100.00
2023-02-12T02:54:16.443Z,100.00
2023-02-12T02:56:47.751Z,100.00
2023-02-12T02:59:24.125Z,100.00
2023-02-12T03:02:01.673Z,100.00
2023-02-12T03:04:45.870Z,100.00
2023-02-12T03:07:41.749Z,100.00
2023-02-12T03:10:20.549Z,100.00
2023-02-12T03:13:07.403Z,100.00
2023-02-12T03:15:52.484Z,100.00
2023-02-12T03:18:30.654Z,100.00
2023-02-12T03:21:03.236Z,100.00
2023-02-12T03:23:55.436Z,100.00
2023-02-12T03:26:27.387Z,100.00
2023-02-12T03:28:53.973Z,100.00
2023-02-12T03:31:38.962Z,100.00
2023-02-12T03:34:26.880Z,100.00
2023-02-12T03:36:57.079Z,100.00
2023-02-12T03:39:45.413Z,100.00
2023-02-12T03:42:38.268Z,100.00
2023-02-12T03:45:19.978Z,100.00
2023-02-12T03:47:51.539Z,100.00
2023-02-12T03:50:44.234Z,100.00
2023-02-12T03:53:11.043Z,100.00
2023-02-12T03:55:42.351Z,100.00
2023-02-12T03:58:12.562Z,100.00
2023-02-12T04:00:39.691Z,100.00
2023-02-12T04:03:07.649Z,100.00
2023-02-12T04:05:34.279Z,100.00
2023-02-12T04:08:04.252Z,100.00
2023-02-12T04:11:01.975Z,100.00
2023-02-12T04:13:49.964Z,100.00
2023-02-12T04:16:40.532Z,100.00
2023-02-12T04:19:12.688Z,100.00
2023-02-12T04:22:05.420Z,100.00
2023-02-12T04:24:44.887Z,100.00
2023-02-12T04:27:39.767Z,100.00
2023-02-12T04:30:40.615Z,100.00
2023-02-12T04:33:11.770Z,100.00
2023-02-12T04:35:51.438Z,100.00
2023-02-12T04:38:23.885Z,100.00
2023-02-12T04:40:51.764Z,100.00
2023-02-12T04:43:36.507Z,100.00
2023-02-12T04:46:05.646Z,100.00
2023-02-12T04:48:32.327Z,100.00
2023-02-12T04:50:58.880Z,100.00
2023-02-12T04:53:25.474Z,100.00
2023-02-12T04:55:52.229Z,100.00
2023-02-12T04:58:19.316Z,100.00
2023-02-12T05:00:45.853Z,100.00
2023-02-12T05:03:12.479Z,100.00
2023-02-12T05:05:39.131Z,100.00
2023-02-12T05:08:05.798Z,100.00
2023-02-12T05:10:32.369Z,100.00
2023-02-12T05:12:59.003Z,100.00
2023-02-12T05:15:25.584Z,100.00
2023-02-12T05:17:52.281Z,100.00
2023-02-12T05:20:19.033Z,100.00
2023-02-12T05:22:45.661Z,100.00
2023-02-12T05:25:12.316Z,100.00
2023-02-12T05:27:38.987Z,100.00
2023-02-12T05:30:06.243Z,100.00
2023-02-12T05:32:32.889Z,100.00
2023-02-12T05:34:59.400Z,100.00
2023-02-12T05:37:26.299Z,100.00
2023-02-12T05:39:53.852Z,100.00
2023-02-12T05:42:20.517Z,100.00
2023-02-12T05:44:47.077Z,100.00
2023-02-12T05:47:13.840Z,100.00
2023-02-12T05:49:40.670Z,100.00
2023-02-12T05:52:07.371Z,100.00
2023-02-12T05:54:34.027Z,100.00
2023-02-12T05:57:00.644Z,100.00
2023-02-12T05:59:27.245Z,100.00
2023-02-12T06:01:53.933Z,100.00
2023-02-12T06:04:26.265Z,100.00
2023-02-12T06:06:54.035Z,100.00
2023-02-12T06:09:20.627Z,100.00
2023-02-12T06:11:47.317Z,100.00
2023-02-12T06:14:19.334Z,100.00
2023-02-12T06:16:48.335Z,100.00
2023-02-12T06:19:15.735Z,100.00
2023-02-12T06:21:42.583Z,100.00
2023-02-12T06:24:13.675Z,100.00
2023-02-12T06:26:40.634Z,100.00
2023-02-12T06:29:07.332Z,100.00
2023-02-12T06:31:36.706Z,100.00
2023-02-12T06:34:06.392Z,100.00
2023-02-12T06:36:33.180Z,100.00
2023-02-12T06:39:02.742Z,100.00
2023-02-12T06:41:29.652Z,100.00
2023-02-12T06:43:56.293Z,100.00
2023-02-12T06:46:23.448Z,100.00
2023-02-12T06:48:54.516Z,100.00
2023-02-12T06:51:23.960Z,100.00
2023-02-12T06:53:52.229Z,100.00
2023-02-12T06:56:20.151Z,100.00
2023-02-12T06:58:48.397Z,100.00
2023-02-12T07:01:17.776Z,100.00
2023-02-12T07:03:48.599Z,100.00
2023-02-12T07:06:15.476Z,100.00
2023-02-12T07:08:42.283Z,100.00
2023-02-12T07:11:09.101Z,100.00
2023-02-12T07:13:35.966Z,100.00
2023-02-12T07:16:13.938Z,100.00
2023-02-12T07:18:40.767Z,100.00
2023-02-12T07:21:08.548Z,100.00
2023-02-12T07:23:35.972Z,100.00
2023-02-12T07:26:09.000Z,100.00
2023-02-12T07:28:35.812Z,100.00
2023-02-12T07:31:14.074Z,100.00
2023-02-12T07:33:41.954Z,100.00
2023-02-12T07:36:11.499Z,100.00
2023-02-12T07:38:39.862Z,100.00
2023-02-12T07:41:14.511Z,100.00
2023-02-12T07:43:43.462Z,100.00
2023-02-12T07:46:29.505Z,100.00
2023-02-12T07:48:58.150Z,100.00
2023-02-12T07:51:25.431Z,100.00
2023-02-12T07:53:55.168Z,100.00
2023-02-12T07:56:24.574Z,100.00
2023-02-12T07:58:53.369Z,100.00
2023-02-12T08:01:21.518Z,100.00
2023-02-12T08:03:49.823Z,100.00
2023-02-12T08:06:28.562Z,100.00
2023-02-12T08:08:58.070Z,100.00
2023-02-12T08:11:25.883Z,100.00
2023-02-12T08:13:53.146Z,100.00
2023-02-12T08:16:22.234Z,100.00
2023-02-12T08:18:49.435Z,100.00
2023-02-12T08:21:18.361Z,100.00
2023-02-12T08:23:45.743Z,100.00
2023-02-12T08:26:13.937Z,100.00
2023-02-12T08:28:43.367Z,100.00
2023-02-12T08:31:13.657Z,100.00
2023-02-12T08:33:40.432Z,100.00
2023-02-12T08:36:12.663Z,100.00
2023-02-12T08:38:39.953Z,100.00
2023-02-12T08:41:09.753Z,100.00
2023-02-12T08:43:37.235Z,100.00
2023-02-12T08:46:03.859Z,100.00
2023-02-12T08:48:30.660Z,100.00
2023-02-12T08:51:02.857Z,100.00
2023-02-12T08:53:29.454Z,100.00
2023-02-12T08:55:56.318Z,100.00
2023-02-12T08:58:23.017Z,100.00
2023-02-12T09:00:49.622Z,100.00
2023-02-12T09:03:16.167Z,100.00
2023-02-12T09:05:42.806Z,100.00
2023-02-12T09:08:09.667Z,100.00
2023-02-12T09:10:41.031Z,100.00
2023-02-12T09:13:09.053Z,100.00
2023-02-12T09:15:45.125Z,100.00
2023-02-12T09:18:13.462Z,100.00
2023-02-12T09:20:43.033Z,100.00
2023-02-12T09:23:10.862Z,100.00
2023-02-12T09:25:43.025Z,100.00
2023-02-12T09:28:11.268Z,100.00
2023-02-12T09:30:38.589Z,100.00
2023-02-12T09:33:06.668Z,100.00
2023-02-12T09:35:39.554Z,100.00
2023-02-12T09:38:07.199Z,100.00
2023-02-12T09:40:46.036Z,100.00
2023-02-12T09:43:23.724Z,100.00
2023-02-12T09:46:00.764Z,100.00
2023-02-12T09:48:54.824Z,100.00
2023-02-12T09:51:22.259Z,100.00
2023-02-12T09:53:56.355Z,100.00
2023-02-12T09:56:26.966Z,100.00
2023-02-12T09:59:03.077Z,100.00
2023-02-12T10:01:29.991Z,100.00
2023-02-12T10:03:56.936Z,100.00
2023-02-12T10:06:23.501Z,100.00
2023-02-12T10:09:11.422Z,100.00
2023-02-12T10:11:53.265Z,100.00
2023-02-12T10:14:27.654Z,100.00
2023-02-12T10:17:13.139Z,100.00
2023-02-12T10:20:04.618Z,100.00
2023-02-12T10:22:31.280Z,100.00
2023-02-12T10:25:12.220Z,100.00
2023-02-12T10:27:54.843Z,100.00
2023-02-12T10:30:26.670Z,100.00
2023-02-12T10:33:00.626Z,100.00
2023-02-12T10:35:27.696Z,100.00
2023-02-12T10:38:27.114Z,100.00
2023-02-12T10:40:57.567Z,100.00
2023-02-12T10:43:24.814Z,100.00
2023-02-12T10:45:52.379Z,100.00
2023-02-12T10:48:24.988Z,100.00
2023-02-12T10:51:06.044Z,100.00
2023-02-12T10:53:34.028Z,100.00
2023-02-12T10:56:12.918Z,100.00
2023-02-12T10:58:43.007Z,100.00
2023-02-12T11:01:19.180Z,100.00
2023-02-12T11:03:45.911Z,100.00
2023-02-12T11:06:16.622Z,100.00
2023-02-12T11:08:44.062Z,100.00
2023-02-12T11:11:20.023Z,100.00
2023-02-12T11:13:54.569Z,100.00
2023-02-12T11:16:33.586Z,100.00
2023-02-12T11:19:04.676Z,100.00
2023-02-12T11:21:32.417Z,100.00
2023-02-12T11:24:21.591Z,100.00
2023-02-12T11:26:48.359Z,100.00
2023-02-12T11:29:24.563Z,100.00
2023-02-12T11:32:04.941Z,100.00
2023-02-12T11:34:31.901Z,100.00
2023-02-12T11:36:58.988Z,100.00
2023-02-12T11:39:32.468Z,100.00
2023-02-12T11:42:14.752Z,100.00
2023-02-12T11:44:48.074Z,100.00
2023-02-12T11:47:30.198Z,100.00
2023-02-12T11:50:05.755Z,100.00
2023-02-12T11:52:35.441Z,100.00
2023-02-12T11:55:18.324Z,100.00
2023-02-12T11:57:47.609Z,100.00
2023-02-12T12:00:17.693Z,100.00
2023-02-12T12:03:06.827Z,100.00
2023-02-12T12:05:43.639Z,100.00
2023-02-12T12:08:33.448Z,100.00
2023-02-12T12:11:10.884Z,100.00
2023-02-12T12:13:44.588Z,100.00
2023-02-12T12:16:49.194Z,100.00
2023-02-12T12:19:43.061Z,100.00
2023-02-12T12:22:23.190Z,100.00
2023-02-12T12:24:49.702Z,100.00
2023-02-12T12:27:45.097Z,100.00
2023-02-12T12:30:27.057Z,100.00
2023-02-12T12:32:56.280Z,100.00
2023-02-12T12:35:37.477Z,100.00
2023-02-12T12:38:24.090Z,99.52
2023-02-12T12:41:12.562Z,100.00
2023-02-12T12:43:50.143Z,100.00
2023-02-12T12:46:29.180Z,100.00
2023-02-12T12:49:18.191Z,100.00
2023-02-12T12:52:06.561Z,97.17
2023-02-12T12:54:51.921Z,98.56
2023-02-12T12:57:39.593Z,97.36
2023-02-12T13:00:25.264Z,96.73
2023-02-12T13:02:57.981Z,96.22
2023-02-12T13:05:59.739Z,94.93
2023-02-12T13:08:52.071Z,92.42
2023-02-12T13:11:40.008Z,91.59
2023-02-12T13:14:30.917Z,95.02
2023-02-12T13:17:23.404Z,94.28
2023-02-12T13:20:23.900Z,95.38
2023-02-12T13:22:50.437Z,94.90
2023-02-12T13:25:27.626Z,95.72
2023-02-12T13:27:57.282Z,94.58
2023-02-12T13:30:25.382Z,94.34
2023-02-12T13:33:05.913Z,91.99
2023-02-12T13:35:35.577Z,93.99
2023-02-12T13:38:03.625Z,93.38
2023-02-12T13:40:31.085Z,94.03
2023-02-12T13:43:13.628Z,93.93
2023-02-12T13:45:52.393Z,92.37
2023-02-12T13:48:48.304Z,93.57
2023-02-12T13:51:15.017Z,97.23
2023-02-12T13:53:47.832Z,95.67
2023-02-12T13:56:46.017Z,96.81
2023-02-12T13:59:39.774Z,96.04
2023-02-12T14:02:12.459Z,93.02
2023-02-12T14:04:46.060Z,92.83
2023-02-12T14:07:15.417Z,92.47
2023-02-12T14:09:46.136Z,92.81
2023-02-12T14:12:24.934Z,92.89
2023-02-12T14:15:08.675Z,92.61
2023-02-12T14:17:35.203Z,95.17
2023-02-12T14:20:20.858Z,92.79
2023-02-12T14:22:47.413Z,93.14
2023-02-12T14:25:13.943Z,92.51
2023-02-12T14:27:54.991Z,92.13
2023-02-12T14:30:35.410Z,91.99
2023-02-12T14:33:08.238Z,89.96
2023-02-12T14:35:37.604Z,89.73
2023-02-12T14:38:32.202Z,90.21
2023-02-12T14:41:34.086Z,90.11
2023-02-12T14:44:26.813Z,90.33
2023-02-12T14:46:55.788Z,89.77
2023-02-12T14:49:34.635Z,90.97
2023-02-12T14:52:19.888Z,89.79
2023-02-12T14:54:50.622Z,90.17
2023-02-12T14:57:26.189Z,90.41
2023-02-12T14:59:57.039Z,90.84
2023-02-12T15:02:30.072Z,90.90
2023-02-12T15:05:02.524Z,89.52
2023-02-12T15:07:45.982Z,89.27
2023-02-12T15:10:20.268Z,89.77
2023-02-12T15:12:55.014Z,91.01
2023-02-12T15:15:33.718Z,90.24
2023-02-12T15:18:07.558Z,91.09
2023-02-12T15:20:41.211Z,91.58
2023-02-12T15:23:34.824Z,90.66
2023-02-12T15:26:02.911Z,91.14
2023-02-12T15:28:36.431Z,90.05
2023-02-12T15:31:10.600Z,89.38
2023-02-12T15:33:45.695Z,90.17
2023-02-12T15:36:17.382Z,89.99
2023-02-12T15:38:45.746Z,90.04
2023-02-12T15:41:27.023Z,89.92
2023-02-12T15:43:54.095Z,90.08
2023-02-12T15:46:21.124Z,89.11
2023-02-12T15:48:47.673Z,88.85
2023-02-12T15:51:25.898Z,89.26
2023-02-12T15:53:52.939Z,89.19
2023-02-12T15:56:22.995Z,90.41
2023-02-12T15:58:52.740Z,90.33
2023-02-12T16:01:24.780Z,91.14
2023-02-12T16:04:00.315Z,90.39
2023-02-12T16:06:29.223Z,89.88
2023-02-12T16:09:03.506Z,90.81
2023-02-12T16:11:31.541Z,90.69
2023-02-12T16:14:05.734Z,91.20
2023-02-12T16:16:45.506Z,90.83
2023-02-12T16:19:24.250Z,91.19
2023-02-12T16:22:06.316Z,91.01
2023-02-12T16:24:35.798Z,91.13
2023-02-12T16:27:09.427Z,91.55
2023-02-12T16:29:43.632Z,91.20
2023-02-12T16:32:27.204Z,91.62
2023-02-12T16:35:04.782Z,90.96
2023-02-12T16:37:37.349Z,90.77
2023-02-12T16:40:07.382Z,91.43
2023-02-12T16:42:34.092Z,91.57
2023-02-12T16:45:00.851Z,91.68
2023-02-12T16:47:30.351Z,91.91
2023-02-12T16:49:59.977Z,92.50
2023-02-12T16:52:40.639Z,93.35
2023-02-12T16:55:13.919Z,93.41
2023-02-12T16:57:40.791Z,93.66
2023-02-12T17:00:20.222Z,93.63
2023-02-12T17:02:56.925Z,94.82
2023-02-12T17:05:24.021Z,94.57
2023-02-12T17:07:50.769Z,95.07
2023-02-12T17:10:18.522Z,95.11
2023-02-12T17:12:51.169Z,95.25
2023-02-12T17:15:24.696Z,94.75
2023-02-12T17:17:52.358Z,95.11
2023-02-12T17:20:19.028Z,95.63
2023-02-12T17:22:52.369Z,95.39
2023-02-12T17:25:19.036Z,96.27
2023-02-12T17:27:45.745Z,96.88
2023-02-12T17:30:18.186Z,96.96
2023-02-12T17:32:44.940Z,97.26
2023-02-12T17:35:14.224Z,97.62
2023-02-12T17:37:40.837Z,96.72
2023-02-12T17:40:08.913Z,97.09
2023-02-12T17:42:35.758Z,97.13
2023-02-12T17:45:02.481Z,97.01
2023-02-12T17:47:29.825Z,96.96
2023-02-12T17:49:56.466Z,97.64
2023-02-12T17:52:23.064Z,97.79
2023-02-12T17:54:49.661Z,98.10
2023-02-12T17:57:16.870Z,98.25
2023-02-12T17:59:43.493Z,97.65
2023-02-12T18:02:11.416Z,96.96
2023-02-12T18:04:38.094Z,97.34
2023-02-12T18:07:06.246Z,97.59
2023-02-12T18:09:33.081Z,98.49
2023-02-12T18:11:59.900Z,98.63
2023-02-12T18:14:26.516Z,99.05
2023-02-12T18:16:53.152Z,98.47
2023-02-12T18:19:19.886Z,98.42
2023-02-12T18:21:46.570Z,98.44
2023-02-12T18:24:13.309Z,99.16
2023-02-12T18:26:39.967Z,98.73
2023-02-12T18:29:06.609Z,99.01
2023-02-12T18:31:33.658Z,99.57
2023-02-12T18:34:00.447Z,100.00
2023-02-12T18:36:27.248Z,100.00
2023-02-12T18:38:53.986Z,99.21
2023-02-12T18:41:24.182Z,99.40
2023-02-12T18:43:51.120Z,99.15
2023-02-12T18:46:19.401Z,100.00
2023-02-12T18:48:46.649Z,99.87
2023-02-12T18:51:16.948Z,99.37
2023-02-12T18:53:44.306Z,99.66
2023-02-12T18:56:11.941Z,99.31
2023-02-12T18:58:38.897Z,99.77
2023-02-12T19:01:16.678Z,99.62
2023-02-12T19:03:44.454Z,99.46
2023-02-12T19:06:14.528Z,100.00
2023-02-12T19:08:41.415Z,100.00
2023-02-12T19:11:12.924Z,100.00
2023-02-12T19:13:41.291Z,100.00
2023-02-12T19:16:17.958Z,100.00
2023-02-12T19:18:44.673Z,100.00
2023-02-12T19:21:13.550Z,100.00
2023-02-12T19:23:40.529Z,100.00
2023-02-12T19:26:12.746Z,100.00
2023-02-12T19:28:39.593Z,100.00
2023-02-12T19:31:28.730Z,100.00
2023-02-12T19:34:01.450Z,100.00
2023-02-12T19:36:32.706Z,100.00
2023-02-12T19:38:59.781Z,100.00
2023-02-12T19:41:28.449Z,100.00
2023-02-12T19:43:58.317Z,100.00
2023-02-12T19:46:26.547Z,100.00
2023-02-12T19:49:00.008Z,100.00
2023-02-12T19:51:29.852Z,100.00
2023-02-12T19:53:59.989Z,100.00
2023-02-12T19:56:27.149Z,100.00
2023-02-12T19:58:56.669Z,100.00
2023-02-12T20:01:23.696Z,100.00
2023-02-12T20:03:50.975Z,100.00
2023-02-12T20:06:23.960Z,100.00
2023-02-12T20:08:50.964Z,100.00
2023-02-12T20:11:20.483Z,100.00
2023-02-12T20:13:48.282Z,100.00
2023-02-12T20:16:21.232Z,100.00
2023-02-12T20:18:49.959Z,100.00
2023-02-12T20:21:24.699Z,100.00
2023-02-12T20:23:51.640Z,100.00
2023-02-12T20:26:19.843Z,100.00
2023-02-12T20:28:47.842Z,100.00
2023-02-12T20:31:20.404Z,100.00
2023-02-12T20:33:48.007Z,100.00
2023-02-12T20:36:15.184Z,100.00
2023-02-12T20:38:43.476Z,100.00
2023-02-12T20:41:11.139Z,100.00
2023-02-12T20:43:38.738Z,100.00
2023-02-12T20:46:06.190Z,100.00
2023-02-12T20:48:32.950Z,100.00
2023-02-12T20:51:06.962Z,100.00
2023-02-12T20:53:34.945Z,100.00
2023-02-12T20:56:04.929Z,100.00
2023-02-12T20:58:31.668Z,100.00
2023-02-12T21:01:09.901Z,100.00
2023-02-12T21:03:37.103Z,100.00
2023-02-12T21:06:04.278Z,100.00
2023-02-12T21:08:31.389Z,100.00
2023-02-12T21:11:02.997Z,100.00
2023-02-12T21:13:29.745Z,100.00
2023-02-12T21:16:09.048Z,100.00
2023-02-12T21:18:35.898Z,100.00
2023-02-12T21:21:05.652Z,100.00
2023-02-12T21:23:33.901Z,100.00
2023-02-12T21:26:10.581Z,100.00
2023-02-12T21:28:37.661Z,100.00
2023-02-12T21:31:09.381Z,100.00
2023-02-12T21:33:37.487Z,100.00
2023-02-12T21:36:06.753Z,100.00
2023-02-12T21:38:35.232Z,100.00
2023-02-12T21:41:15.411Z,100.00
2023-02-12T21:43:44.454Z,100.00
2023-02-12T21:46:11.459Z,100.00
2023-02-12T21:48:41.725Z,100.00
2023-02-12T21:51:35.907Z,100.00
2023-02-12T21:54:05.655Z,100.00
2023-02-12T21:56:32.666Z,100.00
2023-02-12T21:58:59.731Z,100.00
2023-02-12T22:01:29.509Z,100.00
2023-02-12T22:03:56.093Z,100.00
2023-02-12T22:06:24.877Z,100.00
2023-02-12T22:08:56.093Z,100.00
2023-02-12T22:11:23.852Z,100.00
2023-02-12T22:13:50.444Z,100.00
2023-02-12T22:16:18.613Z,100.00
2023-02-12T22:18:46.243Z,100.00
2023-02-12T22:21:14.808Z,100.00
2023-02-12T22:23:42.868Z,100.00
2023-02-12T22:26:15.708Z,100.00
2023-02-12T22:28:47.900Z,100.00
2023-02-12T22:31:19.542Z,100.00
2023-02-12T22:33:47.911Z,100.00
2023-02-12T22:36:14.991Z,100.00
2023-02-12T22:38:41.879Z,100.00
2023-02-12T22:41:09.277Z,100.00
2023-02-12T22:43:38.458Z,100.00
2023-02-12T22:46:06.060Z,100.00
2023-02-12T22:48:32.711Z,100.00
2023-02-12T22:50:59.550Z,100.00
2023-02-12T22:53:26.457Z,100.00
2023-02-12T22:55:53.130Z,100.00
2023-02-12T22:58:19.751Z,100.00
2023-02-12T23:00:46.418Z,100.00
2023-02-12T23:03:13.038Z,100.00
2023-02-12T23:05:39.640Z,100.00
2023-02-12T23:08:06.767Z,100.00
2023-02-12T23:10:33.794Z,100.00
2023-02-12T23:13:02.427Z,100.00
2023-02-12T23:15:30.114Z,100.00
2023-02-12T23:17:56.749Z,100.00
2023-02-12T23:20:23.625Z,100.00
2023-02-12T23:22:50.419Z,100.00
2023-02-12T23:25:17.147Z,100.00
2023-02-12T23:27:43.776Z,100.00
2023-02-12T23:30:10.930Z,100.00
2023-02-12T23:32:37.477Z,100.00
2023-02-12T23:35:04.371Z,100.00
2023-02-12T23:37:30.975Z,100.00
2023-02-12T23:39:57.591Z,100.00
2023-02-12T23:42:24.191Z,100.00
2023-02-12T23:44:50.771Z,100.00
2023-02-12T23:47:17.377Z,100.00
2023-02-12T23:49:44.168Z,100.00
2023-02-12T23:52:10.731Z,100.00
2023-02-12T23:54:37.424Z,100.00
2023-02-12T23:57:04.124Z,100.00
2023-02-12T23:59:30.876Z,100.00
